sensor_id;sensor_type;location;lat;lon;timestamp;temperature;humidity
43185;DHT22;28803;52.308;19.096;2024-01-30T00:02:18;-0.30;99.90
43185;DHT22;28803;52.308;19.096;2024-01-30T00:05:32;-0.40;99.90
43185;DHT22;28803;52.308;19.096;2024-01-30T00:08:01;-0.30;99.90
43185;DHT22;28803;52.308;19.096;2024-01-30T00:10:28;-0.30;1.00
43185;DHT22;28803;52.308;19.096;2024-01-30T00:12:55;-0.40;1.00
43185;DHT22;28803;52.308;19.096;2024-01-30T00:15:23;-0.40;99.90
43185;DHT22;28803;52.308;19.096;2024-01-30T00:17:50;-0.50;1.00
43185;DHT22;28803;52.308;19.096;2024-01-30T00:20:20;-0.50;1.00
43185;DHT22;28803;52.308;19.096;2024-01-30T00:22:48;-0.50;99.90
43185;DHT22;28803;52.308;19.096;2024-01-30T00:25:15;-0.50;99.90
43185;DHT22;28803;52.308;19.096;2024-01-30T00:27:43;-0.50;99.90
43185;DHT22;28803;52.308;19.096;2024-01-30T00:30:11;-0.60;99.90
43185;DHT22;28803;52.308;19.096;2024-01-30T00:32:38;-0.70;1.00
43185;DHT22;28803;52.308;19.096;2024-01-30T00:35:05;-0.70;1.00
43185;DHT22;28803;52.308;19.096;2024-01-30T00:37:33;-0.60;1.00
43185;DHT22;28803;52.308;19.096;2024-01-30T00:40:00;-0.60;1.00
43185;DHT22;28803;52.308;19.096;2024-01-30T00:42:28;-0.50;1.00
43185;DHT22;28803;52.308;19.096;2024-01-30T00:44:55;-0.50;1.00
43185;DHT22;28803;52.308;19.096;2024-01-30T00:47:22;-0.40;1.00
43185;DHT22;28803;52.308;19.096;2024-01-30T00:49:50;-0.40;1.00
43185;DHT22;28803;52.308;19.096;2024-01-30T00:52:17;-0.40;1.00
43185;DHT22;28803;52.308;19.096;2024-01-30T00:54:45;-0.50;1.00
43185;DHT22;28803;52.308;19.096;2024-01-30T00:57:12;-0.50;1.00
43185;DHT22;28803;52.308;19.096;2024-01-30T00:59:39;-0.40;1.00
43185;DHT22;28803;52.308;19.096;2024-01-30T01:02:06;-0.40;1.00
43185;DHT22;28803;52.308;19.096;2024-01-30T01:04:34;-0.50;1.00
43185;DHT22;28803;52.308;19.096;2024-01-30T01:07:01;-0.60;1.00
43185;DHT22;28803;52.308;19.096;2024-01-30T01:09:28;-0.60;1.00
43185;DHT22;28803;52.308;19.096;2024-01-30T01:11:56;-0.60;1.00
43185;DHT22;28803;52.308;19.096;2024-01-30T01:14:23;-0.60;1.00
43185;DHT22;28803;52.308;19.096;2024-01-30T01:16:50;-0.60;1.00
43185;DHT22;28803;52.308;19.096;2024-01-30T01:19:17;-0.60;1.00
43185;DHT22;28803;52.308;19.096;2024-01-30T01:21:45;-0.60;1.00
43185;DHT22;28803;52.308;19.096;2024-01-30T01:24:12;-0.60;1.00
43185;DHT22;28803;52.308;19.096;2024-01-30T01:26:40;-0.60;1.00
43185;DHT22;28803;52.308;19.096;2024-01-30T01:29:07;-0.60;1.00
43185;DHT22;28803;52.308;19.096;2024-01-30T01:31:39;-0.60;1.00
43185;DHT22;28803;52.308;19.096;2024-01-30T01:34:12;-0.60;1.00
43185;DHT22;28803;52.308;19.096;2024-01-30T01:36:39;-0.50;1.00
43185;DHT22;28803;52.308;19.096;2024-01-30T01:39:06;-0.60;1.00
43185;DHT22;28803;52.308;19.096;2024-01-30T01:41:34;-0.50;1.00
43185;DHT22;28803;52.308;19.096;2024-01-30T01:44:01;-0.50;1.00
43185;DHT22;28803;52.308;19.096;2024-01-30T01:46:32;-0.50;1.00
43185;DHT22;28803;52.308;19.096;2024-01-30T01:49:05;-0.50;1.00
43185;DHT22;28803;52.308;19.096;2024-01-30T01:51:34;-0.60;1.00
43185;DHT22;28803;52.308;19.096;2024-01-30T01:54:04;-0.50;1.00
43185;DHT22;28803;52.308;19.096;2024-01-30T01:56:33;-0.50;1.00
43185;DHT22;28803;52.308;19.096;2024-01-30T01:59:06;-0.60;1.00
43185;DHT22;28803;52.308;19.096;2024-01-30T02:01:36;-0.70;1.00
43185;DHT22;28803;52.308;19.096;2024-01-30T02:04:04;-0.70;1.00
43185;DHT22;28803;52.308;19.096;2024-01-30T02:06:32;-0.70;1.00
43185;DHT22;28803;52.308;19.096;2024-01-30T02:09:00;-0.70;1.00
43185;DHT22;28803;52.308;19.096;2024-01-30T02:11:28;-0.70;1.00
43185;DHT22;28803;52.308;19.096;2024-01-30T02:13:56;-0.60;1.00
43185;DHT22;28803;52.308;19.096;2024-01-30T02:16:23;-0.70;1.00
43185;DHT22;28803;52.308;19.096;2024-01-30T02:18:51;-0.60;1.00
43185;DHT22;28803;52.308;19.096;2024-01-30T02:21:18;-0.60;1.00
43185;DHT22;28803;52.308;19.096;2024-01-30T02:23:50;-0.60;1.00
43185;DHT22;28803;52.308;19.096;2024-01-30T02:26:19;-0.60;1.00
43185;DHT22;28803;52.308;19.096;2024-01-30T02:28:47;-0.60;1.00
43185;DHT22;28803;52.308;19.096;2024-01-30T02:31:14;-0.60;1.00
43185;DHT22;28803;52.308;19.096;2024-01-30T02:33:41;-0.60;1.00
43185;DHT22;28803;52.308;19.096;2024-01-30T02:36:09;-0.70;1.00
43185;DHT22;28803;52.308;19.096;2024-01-30T02:38:36;-0.70;1.00
43185;DHT22;28803;52.308;19.096;2024-01-30T02:41:03;-0.70;1.00
43185;DHT22;28803;52.308;19.096;2024-01-30T02:43:30;-0.70;1.00
43185;DHT22;28803;52.308;19.096;2024-01-30T02:45:58;-0.80;1.00
43185;DHT22;28803;52.308;19.096;2024-01-30T02:48:27;-0.80;1.00
43185;DHT22;28803;52.308;19.096;2024-01-30T02:50:54;-0.80;1.00
43185;DHT22;28803;52.308;19.096;2024-01-30T02:53:21;-0.90;1.00
43185;DHT22;28803;52.308;19.096;2024-01-30T02:55:48;-0.90;1.00
43185;DHT22;28803;52.308;19.096;2024-01-30T02:58:16;-0.90;1.00
43185;DHT22;28803;52.308;19.096;2024-01-30T03:00:43;-0.90;1.00
43185;DHT22;28803;52.308;19.096;2024-01-30T03:03:11;-0.90;1.00
43185;DHT22;28803;52.308;19.096;2024-01-30T03:05:39;-0.80;1.00
43185;DHT22;28803;52.308;19.096;2024-01-30T03:08:06;-0.90;1.00
43185;DHT22;28803;52.308;19.096;2024-01-30T03:10:33;-0.90;1.00
43185;DHT22;28803;52.308;19.096;2024-01-30T03:13:01;-0.90;1.00
43185;DHT22;28803;52.308;19.096;2024-01-30T03:15:28;-1.00;1.00
43185;DHT22;28803;52.308;19.096;2024-01-30T03:18:02;-1.00;1.00
43185;DHT22;28803;52.308;19.096;2024-01-30T03:20:32;-1.00;1.00
43185;DHT22;28803;52.308;19.096;2024-01-30T03:23:01;-1.10;1.00
43185;DHT22;28803;52.308;19.096;2024-01-30T03:25:28;-1.10;1.00
43185;DHT22;28803;52.308;19.096;2024-01-30T03:27:55;-1.10;1.00
43185;DHT22;28803;52.308;19.096;2024-01-30T03:30:22;-1.10;1.00
43185;DHT22;28803;52.308;19.096;2024-01-30T03:32:50;-1.10;1.00
43185;DHT22;28803;52.308;19.096;2024-01-30T03:35:19;-1.10;1.00
43185;DHT22;28803;52.308;19.096;2024-01-30T03:37:46;-1.10;1.00
43185;DHT22;28803;52.308;19.096;2024-01-30T03:40:13;-1.20;1.00
43185;DHT22;28803;52.308;19.096;2024-01-30T03:42:42;-1.10;1.00
43185;DHT22;28803;52.308;19.096;2024-01-30T03:45:09;-1.20;1.00
43185;DHT22;28803;52.308;19.096;2024-01-30T03:50:04;-1.30;1.00
43185;DHT22;28803;52.308;19.096;2024-01-30T03:52:32;-1.20;1.00
43185;DHT22;28803;52.308;19.096;2024-01-30T03:54:59;-1.30;1.00
43185;DHT22;28803;52.308;19.096;2024-01-30T03:57:27;-1.30;1.00
43185;DHT22;28803;52.308;19.096;2024-01-30T03:59:55;-1.30;1.00
43185;DHT22;28803;52.308;19.096;2024-01-30T04:02:22;-1.30;1.00
43185;DHT22;28803;52.308;19.096;2024-01-30T04:04:49;-1.30;1.00
43185;DHT22;28803;52.308;19.096;2024-01-30T04:07:17;-1.30;1.00
43185;DHT22;28803;52.308;19.096;2024-01-30T04:09:48;-1.20;1.00
43185;DHT22;28803;52.308;19.096;2024-01-30T04:12:16;-1.30;1.00
43185;DHT22;28803;52.308;19.096;2024-01-30T04:14:43;-1.30;1.00
43185;DHT22;28803;52.308;19.096;2024-01-30T04:17:11;-1.30;1.00
43185;DHT22;28803;52.308;19.096;2024-01-30T04:19:38;-1.30;1.00
43185;DHT22;28803;52.308;19.096;2024-01-30T04:22:06;-1.30;1.00
43185;DHT22;28803;52.308;19.096;2024-01-30T04:24:33;-1.30;1.00
43185;DHT22;28803;52.308;19.096;2024-01-30T04:27:00;-1.30;1.00
43185;DHT22;28803;52.308;19.096;2024-01-30T04:29:28;-1.30;1.00
43185;DHT22;28803;52.308;19.096;2024-01-30T04:31:55;-1.40;1.00
43185;DHT22;28803;52.308;19.096;2024-01-30T04:34:22;-1.40;1.00
43185;DHT22;28803;52.308;19.096;2024-01-30T04:36:50;-1.40;1.00
43185;DHT22;28803;52.308;19.096;2024-01-30T04:39:17;-1.40;1.00
43185;DHT22;28803;52.308;19.096;2024-01-30T04:41:44;-1.40;1.00
43185;DHT22;28803;52.308;19.096;2024-01-30T04:44:12;-1.40;1.00
43185;DHT22;28803;52.308;19.096;2024-01-30T04:46:39;-1.30;1.00
43185;DHT22;28803;52.308;19.096;2024-01-30T04:49:06;-1.20;1.00
43185;DHT22;28803;52.308;19.096;2024-01-30T04:51:37;-1.10;1.00
43185;DHT22;28803;52.308;19.096;2024-01-30T04:54:04;-1.10;1.00
43185;DHT22;28803;52.308;19.096;2024-01-30T04:56:31;-1.10;1.00
43185;DHT22;28803;52.308;19.096;2024-01-30T04:58:58;-1.00;1.00
43185;DHT22;28803;52.308;19.096;2024-01-30T05:01:26;-1.00;1.00
43185;DHT22;28803;52.308;19.096;2024-01-30T05:03:53;-0.90;1.00
43185;DHT22;28803;52.308;19.096;2024-01-30T05:06:27;-0.90;1.00
43185;DHT22;28803;52.308;19.096;2024-01-30T05:09:01;-0.80;1.00
43185;DHT22;28803;52.308;19.096;2024-01-30T05:11:29;-0.80;1.00
43185;DHT22;28803;52.308;19.096;2024-01-30T05:13:56;-0.70;1.00
43185;DHT22;28803;52.308;19.096;2024-01-30T05:16:24;-0.70;1.00
43185;DHT22;28803;52.308;19.096;2024-01-30T05:18:51;-0.60;1.00
43185;DHT22;28803;52.308;19.096;2024-01-30T05:21:19;-0.50;1.00
43185;DHT22;28803;52.308;19.096;2024-01-30T05:23:46;-0.50;1.00
43185;DHT22;28803;52.308;19.096;2024-01-30T05:26:13;-0.50;1.00
43185;DHT22;28803;52.308;19.096;2024-01-30T05:28:40;-0.40;1.00
43185;DHT22;28803;52.308;19.096;2024-01-30T05:31:08;-0.50;1.00
43185;DHT22;28803;52.308;19.096;2024-01-30T05:33:35;-0.40;1.00
43185;DHT22;28803;52.308;19.096;2024-01-30T05:36:03;-0.30;1.00
43185;DHT22;28803;52.308;19.096;2024-01-30T05:38:30;-0.30;1.00
43185;DHT22;28803;52.308;19.096;2024-01-30T05:40:59;-0.40;1.00
43185;DHT22;28803;52.308;19.096;2024-01-30T05:43:26;-0.30;1.00
43185;DHT22;28803;52.308;19.096;2024-01-30T05:45:53;-0.20;1.00
43185;DHT22;28803;52.308;19.096;2024-01-30T05:48:21;-0.20;1.00
43185;DHT22;28803;52.308;19.096;2024-01-30T05:50:48;-0.30;1.00
43185;DHT22;28803;52.308;19.096;2024-01-30T05:53:16;-0.20;1.00
43185;DHT22;28803;52.308;19.096;2024-01-30T05:55:43;-0.20;1.00
43185;DHT22;28803;52.308;19.096;2024-01-30T05:58:10;-0.20;1.00
43185;DHT22;28803;52.308;19.096;2024-01-30T06:00:38;-0.20;1.00
43185;DHT22;28803;52.308;19.096;2024-01-30T06:03:05;-0.20;1.00
43185;DHT22;28803;52.308;19.096;2024-01-30T06:05:33;-0.20;1.00
43185;DHT22;28803;52.308;19.096;2024-01-30T06:08:01;-0.10;1.00
43185;DHT22;28803;52.308;19.096;2024-01-30T06:10:29;-0.20;1.00
43185;DHT22;28803;52.308;19.096;2024-01-30T06:12:56;-0.10;1.00
43185;DHT22;28803;52.308;19.096;2024-01-30T06:15:23;-0.10;1.00
43185;DHT22;28803;52.308;19.096;2024-01-30T06:17:51;-0.10;1.00
43185;DHT22;28803;52.308;19.096;2024-01-30T06:20:18;0.00;1.00
43185;DHT22;28803;52.308;19.096;2024-01-30T06:22:46;0.00;1.00
43185;DHT22;28803;52.308;19.096;2024-01-30T06:25:13;0.00;1.00
43185;DHT22;28803;52.308;19.096;2024-01-30T06:27:40;0.00;1.00
43185;DHT22;28803;52.308;19.096;2024-01-30T06:30:08;0.10;1.00
43185;DHT22;28803;52.308;19.096;2024-01-30T06:32:35;0.10;1.00
43185;DHT22;28803;52.308;19.096;2024-01-30T06:35:03;0.20;1.00
43185;DHT22;28803;52.308;19.096;2024-01-30T06:37:34;0.20;1.00
43185;DHT22;28803;52.308;19.096;2024-01-30T06:40:01;0.30;1.00
43185;DHT22;28803;52.308;19.096;2024-01-30T06:42:29;0.30;1.00
43185;DHT22;28803;52.308;19.096;2024-01-30T06:44:57;0.40;1.00
43185;DHT22;28803;52.308;19.096;2024-01-30T06:47:24;0.40;1.00
43185;DHT22;28803;52.308;19.096;2024-01-30T06:49:52;0.50;1.00
43185;DHT22;28803;52.308;19.096;2024-01-30T06:52:20;0.50;1.00
43185;DHT22;28803;52.308;19.096;2024-01-30T06:54:47;0.60;1.00
43185;DHT22;28803;52.308;19.096;2024-01-30T06:57:15;0.60;1.00
43185;DHT22;28803;52.308;19.096;2024-01-30T06:59:42;0.70;1.00
43185;DHT22;28803;52.308;19.096;2024-01-30T07:02:11;0.80;1.00
43185;DHT22;28803;52.308;19.096;2024-01-30T07:04:39;0.80;1.00
43185;DHT22;28803;52.308;19.096;2024-01-30T07:07:13;0.80;1.00
43185;DHT22;28803;52.308;19.096;2024-01-30T07:09:43;0.90;1.00
43185;DHT22;28803;52.308;19.096;2024-01-30T07:12:10;1.00;99.90
43185;DHT22;28803;52.308;19.096;2024-01-30T07:14:38;1.00;99.90
43185;DHT22;28803;52.308;19.096;2024-01-30T07:17:05;1.00;99.90
43185;DHT22;28803;52.308;19.096;2024-01-30T07:19:33;1.10;1.00
43185;DHT22;28803;52.308;19.096;2024-01-30T07:22:02;1.10;99.90
43185;DHT22;28803;52.308;19.096;2024-01-30T07:24:30;1.20;1.00
43185;DHT22;28803;52.308;19.096;2024-01-30T07:26:57;1.20;1.00
43185;DHT22;28803;52.308;19.096;2024-01-30T07:29:25;1.20;1.00
43185;DHT22;28803;52.308;19.096;2024-01-30T07:31:53;1.30;1.00
43185;DHT22;28803;52.308;19.096;2024-01-30T07:34:21;1.30;99.90
43185;DHT22;28803;52.308;19.096;2024-01-30T07:36:48;1.30;99.90
43185;DHT22;28803;52.308;19.096;2024-01-30T07:39:17;1.40;99.90
43185;DHT22;28803;52.308;19.096;2024-01-30T07:41:44;1.40;1.00
43185;DHT22;28803;52.308;19.096;2024-01-30T07:44:12;1.50;99.90
43185;DHT22;28803;52.308;19.096;2024-01-30T07:46:40;1.50;99.90
43185;DHT22;28803;52.308;19.096;2024-01-30T07:49:07;1.50;99.90
43185;DHT22;28803;52.308;19.096;2024-01-30T07:51:35;1.70;99.90
43185;DHT22;28803;52.308;19.096;2024-01-30T07:54:03;1.70;1.00
43185;DHT22;28803;52.308;19.096;2024-01-30T07:56:30;1.80;99.90
43185;DHT22;28803;52.308;19.096;2024-01-30T07:58:58;1.90;99.90
43185;DHT22;28803;52.308;19.096;2024-01-30T08:01:26;1.90;99.90
43185;DHT22;28803;52.308;19.096;2024-01-30T08:03:53;2.00;99.90
43185;DHT22;28803;52.308;19.096;2024-01-30T08:06:21;2.10;99.90
43185;DHT22;28803;52.308;19.096;2024-01-30T08:08:48;2.20;99.90
43185;DHT22;28803;52.308;19.096;2024-01-30T08:11:16;2.20;99.90
43185;DHT22;28803;52.308;19.096;2024-01-30T08:13:43;2.30;99.90
43185;DHT22;28803;52.308;19.096;2024-01-30T08:16:11;2.40;99.90
43185;DHT22;28803;52.308;19.096;2024-01-30T08:18:41;2.50;99.90
43185;DHT22;28803;52.308;19.096;2024-01-30T08:21:09;2.70;99.90
43185;DHT22;28803;52.308;19.096;2024-01-30T08:23:38;2.80;99.90
43185;DHT22;28803;52.308;19.096;2024-01-30T08:26:06;2.90;99.90
43185;DHT22;28803;52.308;19.096;2024-01-30T08:28:34;3.60;99.90
43185;DHT22;28803;52.308;19.096;2024-01-30T08:31:02;5.10;99.90
43185;DHT22;28803;52.308;19.096;2024-01-30T08:33:30;6.40;1.00
43185;DHT22;28803;52.308;19.096;2024-01-30T08:35:57;6.80;1.00
43185;DHT22;28803;52.308;19.096;2024-01-30T08:38:25;6.70;1.00
43185;DHT22;28803;52.308;19.096;2024-01-30T08:40:52;6.80;1.00
43185;DHT22;28803;52.308;19.096;2024-01-30T08:43:20;8.20;1.00
43185;DHT22;28803;52.308;19.096;2024-01-30T08:45:47;10.20;1.00
43185;DHT22;28803;52.308;19.096;2024-01-30T08:48:15;11.50;1.00
43185;DHT22;28803;52.308;19.096;2024-01-30T08:50:42;12.80;1.00
43185;DHT22;28803;52.308;19.096;2024-01-30T08:53:10;13.60;1.00
43185;DHT22;28803;52.308;19.096;2024-01-30T08:55:37;14.40;1.00
43185;DHT22;28803;52.308;19.096;2024-01-30T08:58:06;15.80;1.00
43185;DHT22;28803;52.308;19.096;2024-01-30T09:00:34;16.30;1.00
43185;DHT22;28803;52.308;19.096;2024-01-30T09:03:02;16.30;1.00
43185;DHT22;28803;52.308;19.096;2024-01-30T09:05:30;16.70;1.00
43185;DHT22;28803;52.308;19.096;2024-01-30T09:07:58;17.30;1.00
43185;DHT22;28803;52.308;19.096;2024-01-30T09:10:26;17.40;1.00
43185;DHT22;28803;52.308;19.096;2024-01-30T09:12:54;17.70;1.00
43185;DHT22;28803;52.308;19.096;2024-01-30T09:15:22;17.90;1.00
43185;DHT22;28803;52.308;19.096;2024-01-30T09:17:53;18.10;1.00
43185;DHT22;28803;52.308;19.096;2024-01-30T09:20:20;18.10;1.00
43185;DHT22;28803;52.308;19.096;2024-01-30T09:22:49;18.20;1.00
43185;DHT22;28803;52.308;19.096;2024-01-30T09:25:17;18.80;1.00
43185;DHT22;28803;52.308;19.096;2024-01-30T09:27:46;18.80;1.00
43185;DHT22;28803;52.308;19.096;2024-01-30T09:30:14;19.20;1.00
43185;DHT22;28803;52.308;19.096;2024-01-30T09:32:42;19.60;1.00
43185;DHT22;28803;52.308;19.096;2024-01-30T09:35:10;19.80;1.00
43185;DHT22;28803;52.308;19.096;2024-01-30T09:37:38;19.80;1.00
43185;DHT22;28803;52.308;19.096;2024-01-30T09:40:06;20.20;1.00
43185;DHT22;28803;52.308;19.096;2024-01-30T09:42:35;20.20;1.00
43185;DHT22;28803;52.308;19.096;2024-01-30T09:45:04;20.40;1.00
43185;DHT22;28803;52.308;19.096;2024-01-30T09:47:42;20.70;1.00
43185;DHT22;28803;52.308;19.096;2024-01-30T09:50:13;20.70;1.00
43185;DHT22;28803;52.308;19.096;2024-01-30T09:52:41;20.60;1.00
43185;DHT22;28803;52.308;19.096;2024-01-30T09:55:09;20.70;1.00
43185;DHT22;28803;52.308;19.096;2024-01-30T09:57:37;20.70;1.00
43185;DHT22;28803;52.308;19.096;2024-01-30T10:00:06;20.90;1.00
43185;DHT22;28803;52.308;19.096;2024-01-30T10:02:36;21.40;1.00
43185;DHT22;28803;52.308;19.096;2024-01-30T10:05:05;21.00;1.00
43185;DHT22;28803;52.308;19.096;2024-01-30T10:07:33;19.60;1.00
43185;DHT22;28803;52.308;19.096;2024-01-30T10:10:01;17.10;1.00
43185;DHT22;28803;52.308;19.096;2024-01-30T10:12:29;14.30;1.00
43185;DHT22;28803;52.308;19.096;2024-01-30T10:14:57;12.10;1.00
43185;DHT22;28803;52.308;19.096;2024-01-30T10:17:25;10.20;1.00
43185;DHT22;28803;52.308;19.096;2024-01-30T10:20:00;8.70;1.00
43185;DHT22;28803;52.308;19.096;2024-01-30T10:22:31;7.70;1.00
43185;DHT22;28803;52.308;19.096;2024-01-30T10:25:00;7.10;1.00
43185;DHT22;28803;52.308;19.096;2024-01-30T10:27:32;6.60;1.00
43185;DHT22;28803;52.308;19.096;2024-01-30T10:29:59;6.20;1.00
43185;DHT22;28803;52.308;19.096;2024-01-30T10:32:27;6.00;1.00
43185;DHT22;28803;52.308;19.096;2024-01-30T10:34:55;5.90;1.00
43185;DHT22;28803;52.308;19.096;2024-01-30T10:37:25;5.70;1.00
43185;DHT22;28803;52.308;19.096;2024-01-30T10:39:53;5.70;1.00
43185;DHT22;28803;52.308;19.096;2024-01-30T10:42:26;5.70;1.00
43185;DHT22;28803;52.308;19.096;2024-01-30T10:45:04;5.60;1.00
43185;DHT22;28803;52.308;19.096;2024-01-30T10:47:35;5.50;1.00
43185;DHT22;28803;52.308;19.096;2024-01-30T10:50:07;5.50;1.00
43185;DHT22;28803;52.308;19.096;2024-01-30T10:52:36;5.50;1.00
43185;DHT22;28803;52.308;19.096;2024-01-30T10:55:05;5.40;1.00
43185;DHT22;28803;52.308;19.096;2024-01-30T10:57:35;5.40;1.00
43185;DHT22;28803;52.308;19.096;2024-01-30T11:00:09;5.30;1.00
43185;DHT22;28803;52.308;19.096;2024-01-30T11:02:41;5.40;1.00
43185;DHT22;28803;52.308;19.096;2024-01-30T11:05:11;5.40;1.00
43185;DHT22;28803;52.308;19.096;2024-01-30T11:07:39;5.40;1.00
43185;DHT22;28803;52.308;19.096;2024-01-30T11:10:08;5.40;1.00
43185;DHT22;28803;52.308;19.096;2024-01-30T11:12:40;5.50;1.00
43185;DHT22;28803;52.308;19.096;2024-01-30T11:15:14;5.50;1.00
43185;DHT22;28803;52.308;19.096;2024-01-30T11:20:29;5.60;1.00
43185;DHT22;28803;52.308;19.096;2024-01-30T11:23:00;5.60;1.00
43185;DHT22;28803;52.308;19.096;2024-01-30T11:25:33;5.70;1.00
43185;DHT22;28803;52.308;19.096;2024-01-30T11:28:00;5.70;1.00
43185;DHT22;28803;52.308;19.096;2024-01-30T11:30:29;5.70;1.00
43185;DHT22;28803;52.308;19.096;2024-01-30T11:35:43;5.80;1.00
43185;DHT22;28803;52.308;19.096;2024-01-30T11:38:14;5.90;1.00
43185;DHT22;28803;52.308;19.096;2024-01-30T11:40:43;6.00;1.00
43185;DHT22;28803;52.308;19.096;2024-01-30T11:43:11;6.00;1.00
43185;DHT22;28803;52.308;19.096;2024-01-30T11:45:39;6.10;1.00
43185;DHT22;28803;52.308;19.096;2024-01-30T11:48:07;6.10;1.00
43185;DHT22;28803;52.308;19.096;2024-01-30T11:50:39;6.20;1.00
43185;DHT22;28803;52.308;19.096;2024-01-30T11:53:11;6.10;1.00
43185;DHT22;28803;52.308;19.096;2024-01-30T11:55:39;6.20;1.00
43185;DHT22;28803;52.308;19.096;2024-01-30T11:58:06;6.20;1.00
43185;DHT22;28803;52.308;19.096;2024-01-30T12:00:34;6.20;1.00
43185;DHT22;28803;52.308;19.096;2024-01-30T12:03:03;6.20;1.00
43185;DHT22;28803;52.308;19.096;2024-01-30T12:05:31;6.30;1.00
43185;DHT22;28803;52.308;19.096;2024-01-30T12:07:59;6.30;1.00
43185;DHT22;28803;52.308;19.096;2024-01-30T12:10:29;6.40;1.00
43185;DHT22;28803;52.308;19.096;2024-01-30T12:12:58;6.40;1.00
43185;DHT22;28803;52.308;19.096;2024-01-30T12:15:28;6.40;1.00
43185;DHT22;28803;52.308;19.096;2024-01-30T12:18:04;6.40;1.00
43185;DHT22;28803;52.308;19.096;2024-01-30T12:20:33;6.30;1.00
43185;DHT22;28803;52.308;19.096;2024-01-30T12:23:01;6.40;1.00
43185;DHT22;28803;52.308;19.096;2024-01-30T12:25:28;6.30;1.00
43185;DHT22;28803;52.308;19.096;2024-01-30T12:27:56;6.30;1.00
43185;DHT22;28803;52.308;19.096;2024-01-30T12:30:23;6.30;1.00
43185;DHT22;28803;52.308;19.096;2024-01-30T12:32:51;6.30;1.00
43185;DHT22;28803;52.308;19.096;2024-01-30T12:35:20;6.30;1.00
43185;DHT22;28803;52.308;19.096;2024-01-30T12:37:49;6.20;1.00
43185;DHT22;28803;52.308;19.096;2024-01-30T12:40:17;6.20;1.00
43185;DHT22;28803;52.308;19.096;2024-01-30T12:42:48;6.20;1.00
43185;DHT22;28803;52.308;19.096;2024-01-30T12:45:17;6.20;1.00
43185;DHT22;28803;52.308;19.096;2024-01-30T12:47:50;6.20;1.00
43185;DHT22;28803;52.308;19.096;2024-01-30T12:50:18;6.20;1.00
43185;DHT22;28803;52.308;19.096;2024-01-30T12:52:46;6.10;1.00
43185;DHT22;28803;52.308;19.096;2024-01-30T12:55:16;6.10;1.00
43185;DHT22;28803;52.308;19.096;2024-01-30T12:57:45;6.10;1.00
43185;DHT22;28803;52.308;19.096;2024-01-30T13:00:13;6.10;1.00
43185;DHT22;28803;52.308;19.096;2024-01-30T13:02:40;6.20;1.00
43185;DHT22;28803;52.308;19.096;2024-01-30T13:05:10;6.20;1.00
43185;DHT22;28803;52.308;19.096;2024-01-30T13:07:37;6.20;1.00
43185;DHT22;28803;52.308;19.096;2024-01-30T13:10:05;6.20;1.00
43185;DHT22;28803;52.308;19.096;2024-01-30T13:12:33;6.20;1.00
43185;DHT22;28803;52.308;19.096;2024-01-30T13:15:01;6.20;1.00
43185;DHT22;28803;52.308;19.096;2024-01-30T13:17:31;6.20;1.00
43185;DHT22;28803;52.308;19.096;2024-01-30T13:19:59;6.10;1.00
43185;DHT22;28803;52.308;19.096;2024-01-30T13:22:37;6.10;1.00
43185;DHT22;28803;52.308;19.096;2024-01-30T13:25:06;6.20;1.00
43185;DHT22;28803;52.308;19.096;2024-01-30T13:27:36;6.20;1.00
43185;DHT22;28803;52.308;19.096;2024-01-30T13:30:04;6.30;1.00
43185;DHT22;28803;52.308;19.096;2024-01-30T13:32:31;6.40;1.00
43185;DHT22;28803;52.308;19.096;2024-01-30T13:34:59;6.50;1.00
43185;DHT22;28803;52.308;19.096;2024-01-30T13:37:26;6.60;1.00
43185;DHT22;28803;52.308;19.096;2024-01-30T13:39:54;6.60;1.00
43185;DHT22;28803;52.308;19.096;2024-01-30T13:42:21;6.70;1.00
43185;DHT22;28803;52.308;19.096;2024-01-30T13:44:49;6.70;1.00
43185;DHT22;28803;52.308;19.096;2024-01-30T13:47:16;6.70;1.00
43185;DHT22;28803;52.308;19.096;2024-01-30T13:49:46;6.60;1.00
43185;DHT22;28803;52.308;19.096;2024-01-30T13:52:13;6.60;1.00
43185;DHT22;28803;52.308;19.096;2024-01-30T13:54:42;6.60;1.00
43185;DHT22;28803;52.308;19.096;2024-01-30T13:57:10;6.60;1.00
43185;DHT22;28803;52.308;19.096;2024-01-30T13:59:38;6.70;1.00
43185;DHT22;28803;52.308;19.096;2024-01-30T14:02:06;6.60;1.00
43185;DHT22;28803;52.308;19.096;2024-01-30T14:04:35;6.50;1.00
43185;DHT22;28803;52.308;19.096;2024-01-30T14:07:04;6.50;1.00
43185;DHT22;28803;52.308;19.096;2024-01-30T14:09:35;6.50;1.00
43185;DHT22;28803;52.308;19.096;2024-01-30T14:12:02;6.40;1.00
43185;DHT22;28803;52.308;19.096;2024-01-30T14:14:30;6.30;1.00
43185;DHT22;28803;52.308;19.096;2024-01-30T14:16:57;6.30;1.00
43185;DHT22;28803;52.308;19.096;2024-01-30T14:19:25;6.30;1.00
43185;DHT22;28803;52.308;19.096;2024-01-30T14:21:53;6.20;1.00
43185;DHT22;28803;52.308;19.096;2024-01-30T14:24:20;6.20;1.00
43185;DHT22;28803;52.308;19.096;2024-01-30T14:26:47;6.10;1.00
43185;DHT22;28803;52.308;19.096;2024-01-30T14:29:15;6.00;1.00
43185;DHT22;28803;52.308;19.096;2024-01-30T14:31:42;5.90;1.00
43185;DHT22;28803;52.308;19.096;2024-01-30T14:34:10;5.80;1.00
43185;DHT22;28803;52.308;19.096;2024-01-30T14:36:38;5.70;1.00
43185;DHT22;28803;52.308;19.096;2024-01-30T14:39:05;5.60;1.00
43185;DHT22;28803;52.308;19.096;2024-01-30T14:41:34;5.50;1.00
43185;DHT22;28803;52.308;19.096;2024-01-30T14:44:01;5.40;1.00
43185;DHT22;28803;52.308;19.096;2024-01-30T14:46:30;5.20;1.00
43185;DHT22;28803;52.308;19.096;2024-01-30T14:48:59;5.10;1.00
43185;DHT22;28803;52.308;19.096;2024-01-30T14:51:26;5.00;1.00
43185;DHT22;28803;52.308;19.096;2024-01-30T14:53:54;4.90;1.00
43185;DHT22;28803;52.308;19.096;2024-01-30T14:56:21;4.80;1.00
43185;DHT22;28803;52.308;19.096;2024-01-30T14:58:49;4.70;1.00
43185;DHT22;28803;52.308;19.096;2024-01-30T15:01:18;4.60;1.00
43185;DHT22;28803;52.308;19.096;2024-01-30T15:03:46;4.40;1.00
43185;DHT22;28803;52.308;19.096;2024-01-30T15:06:14;4.30;1.00
43185;DHT22;28803;52.308;19.096;2024-01-30T15:08:41;4.20;1.00
43185;DHT22;28803;52.308;19.096;2024-01-30T15:11:09;4.00;1.00
43185;DHT22;28803;52.308;19.096;2024-01-30T15:13:36;3.90;1.00
43185;DHT22;28803;52.308;19.096;2024-01-30T15:16:04;3.90;1.00
43185;DHT22;28803;52.308;19.096;2024-01-30T15:18:33;3.70;1.00
43185;DHT22;28803;52.308;19.096;2024-01-30T15:21:00;3.60;1.00
43185;DHT22;28803;52.308;19.096;2024-01-30T15:23:28;3.40;1.00
43185;DHT22;28803;52.308;19.096;2024-01-30T15:25:55;3.40;1.00
43185;DHT22;28803;52.308;19.096;2024-01-30T15:28:37;3.30;1.00
43185;DHT22;28803;52.308;19.096;2024-01-30T15:31:05;3.10;1.00
43185;DHT22;28803;52.308;19.096;2024-01-30T15:33:33;3.10;1.00
43185;DHT22;28803;52.308;19.096;2024-01-30T15:36:01;3.00;1.00
43185;DHT22;28803;52.308;19.096;2024-01-30T15:38:29;3.00;7.30
43185;DHT22;28803;52.308;19.096;2024-01-30T15:40:57;2.90;8.80
43185;DHT22;28803;52.308;19.096;2024-01-30T15:43:24;2.80;9.20
43185;DHT22;28803;52.308;19.096;2024-01-30T15:45:51;2.80;10.40
43185;DHT22;28803;52.308;19.096;2024-01-30T15:48:19;2.60;11.20
43185;DHT22;28803;52.308;19.096;2024-01-30T15:50:47;2.60;13.60
43185;DHT22;28803;52.308;19.096;2024-01-30T15:53:14;2.60;14.70